sensor_id;sensor_type;location;lat;lon;timestamp;temperature;humidity
35962;DHT22;22044;48.298;10.008;2023-10-19T00:02:23;7.70;99.90
35962;DHT22;22044;48.298;10.008;2023-10-19T00:05:08;7.70;99.90
35962;DHT22;22044;48.298;10.008;2023-10-19T00:07:54;7.80;99.90
35962;DHT22;22044;48.298;10.008;2023-10-19T00:10:42;7.80;99.90
35962;DHT22;22044;48.298;10.008;2023-10-19T00:13:27;7.80;99.90
35962;DHT22;22044;48.298;10.008;2023-10-19T00:16:13;7.80;99.90
35962;DHT22;22044;48.298;10.008;2023-10-19T00:19:00;7.80;99.90
35962;DHT22;22044;48.298;10.008;2023-10-19T00:21:46;7.80;99.90
35962;DHT22;22044;48.298;10.008;2023-10-19T00:24:41;7.80;99.90
35962;DHT22;22044;48.298;10.008;2023-10-19T00:27:28;7.90;99.90
35962;DHT22;22044;48.298;10.008;2023-10-19T00:30:14;7.90;99.90
35962;DHT22;22044;48.298;10.008;2023-10-19T00:33:03;7.90;99.90
35962;DHT22;22044;48.298;10.008;2023-10-19T00:35:50;7.80;99.90
35962;DHT22;22044;48.298;10.008;2023-10-19T00:38:44;7.70;99.90
35962;DHT22;22044;48.298;10.008;2023-10-19T00:41:37;7.60;99.90
35962;DHT22;22044;48.298;10.008;2023-10-19T00:44:24;7.50;99.90
35962;DHT22;22044;48.298;10.008;2023-10-19T00:47:21;7.60;99.90
35962;DHT22;22044;48.298;10.008;2023-10-19T00:50:09;7.60;99.90
35962;DHT22;22044;48.298;10.008;2023-10-19T00:53:00;7.60;99.90
35962;DHT22;22044;48.298;10.008;2023-10-19T00:55:48;7.70;99.90
35962;DHT22;22044;48.298;10.008;2023-10-19T00:58:38;7.70;99.90
35962;DHT22;22044;48.298;10.008;2023-10-19T01:01:28;7.70;99.90
35962;DHT22;22044;48.298;10.008;2023-10-19T01:04:14;7.70;99.90
35962;DHT22;22044;48.298;10.008;2023-10-19T01:07:04;7.70;99.90
35962;DHT22;22044;48.298;10.008;2023-10-19T01:09:57;7.70;99.90
35962;DHT22;22044;48.298;10.008;2023-10-19T01:12:43;7.80;99.90
35962;DHT22;22044;48.298;10.008;2023-10-19T01:15:30;7.70;99.90
35962;DHT22;22044;48.298;10.008;2023-10-19T01:18:21;7.80;99.90
35962;DHT22;22044;48.298;10.008;2023-10-19T01:21:06;7.80;99.90
35962;DHT22;22044;48.298;10.008;2023-10-19T01:23:53;7.70;99.90
35962;DHT22;22044;48.298;10.008;2023-10-19T01:26:39;7.60;99.90
35962;DHT22;22044;48.298;10.008;2023-10-19T01:29:25;7.70;99.90
35962;DHT22;22044;48.298;10.008;2023-10-19T01:32:12;7.60;99.90
35962;DHT22;22044;48.298;10.008;2023-10-19T01:34:59;7.50;99.90
35962;DHT22;22044;48.298;10.008;2023-10-19T01:37:45;7.40;99.90
35962;DHT22;22044;48.298;10.008;2023-10-19T01:40:31;7.40;99.90
35962;DHT22;22044;48.298;10.008;2023-10-19T01:43:17;7.40;99.90
35962;DHT22;22044;48.298;10.008;2023-10-19T01:46:05;7.30;99.90
35962;DHT22;22044;48.298;10.008;2023-10-19T01:48:55;7.30;99.90
35962;DHT22;22044;48.298;10.008;2023-10-19T01:51:41;7.30;99.90
35962;DHT22;22044;48.298;10.008;2023-10-19T01:54:28;7.30;99.90
35962;DHT22;22044;48.298;10.008;2023-10-19T01:57:15;7.30;99.90
35962;DHT22;22044;48.298;10.008;2023-10-19T02:00:01;7.40;99.90
35962;DHT22;22044;48.298;10.008;2023-10-19T02:02:56;7.40;99.90
35962;DHT22;22044;48.298;10.008;2023-10-19T02:05:44;7.50;99.90
35962;DHT22;22044;48.298;10.008;2023-10-19T02:08:28;7.60;99.90
35962;DHT22;22044;48.298;10.008;2023-10-19T02:11:15;7.60;99.90
35962;DHT22;22044;48.298;10.008;2023-10-19T02:14:03;7.70;99.90
35962;DHT22;22044;48.298;10.008;2023-10-19T02:17:00;7.70;99.90
35962;DHT22;22044;48.298;10.008;2023-10-19T02:19:47;7.70;99.90
35962;DHT22;22044;48.298;10.008;2023-10-19T02:22:33;7.70;99.90
35962;DHT22;22044;48.298;10.008;2023-10-19T02:25:19;7.80;99.90
35962;DHT22;22044;48.298;10.008;2023-10-19T02:28:05;7.80;99.90
35962;DHT22;22044;48.298;10.008;2023-10-19T02:30:53;7.80;99.90
35962;DHT22;22044;48.298;10.008;2023-10-19T02:33:38;7.80;99.90
35962;DHT22;22044;48.298;10.008;2023-10-19T02:36:24;7.70;99.90
35962;DHT22;22044;48.298;10.008;2023-10-19T02:39:13;7.60;99.90
35962;DHT22;22044;48.298;10.008;2023-10-19T02:42:01;7.50;99.90
35962;DHT22;22044;48.298;10.008;2023-10-19T02:44:47;7.50;99.90
35962;DHT22;22044;48.298;10.008;2023-10-19T02:47:36;7.50;99.90
35962;DHT22;22044;48.298;10.008;2023-10-19T02:50:21;7.50;99.90
35962;DHT22;22044;48.298;10.008;2023-10-19T02:53:07;7.50;99.90
35962;DHT22;22044;48.298;10.008;2023-10-19T02:55:57;7.50;99.90
35962;DHT22;22044;48.298;10.008;2023-10-19T02:58:46;7.50;99.90
35962;DHT22;22044;48.298;10.008;2023-10-19T03:01:33;7.30;99.90
35962;DHT22;22044;48.298;10.008;2023-10-19T03:04:20;7.20;99.90
35962;DHT22;22044;48.298;10.008;2023-10-19T03:07:05;7.20;99.90
35962;DHT22;22044;48.298;10.008;2023-10-19T03:09:51;7.20;99.90
35962;DHT22;22044;48.298;10.008;2023-10-19T03:12:38;7.30;99.90
35962;DHT22;22044;48.298;10.008;2023-10-19T03:15:25;7.20;99.90
35962;DHT22;22044;48.298;10.008;2023-10-19T03:18:11;7.20;99.90
35962;DHT22;22044;48.298;10.008;2023-10-19T03:20:58;7.10;99.90
35962;DHT22;22044;48.298;10.008;2023-10-19T03:23:44;7.30;99.90
35962;DHT22;22044;48.298;10.008;2023-10-19T03:26:29;7.30;99.90
35962;DHT22;22044;48.298;10.008;2023-10-19T03:29:21;7.20;99.90
35962;DHT22;22044;48.298;10.008;2023-10-19T03:32:07;7.20;99.90
35962;DHT22;22044;48.298;10.008;2023-10-19T03:34:53;7.30;99.90
35962;DHT22;22044;48.298;10.008;2023-10-19T03:37:41;7.30;99.90
35962;DHT22;22044;48.298;10.008;2023-10-19T03:40:26;7.20;99.90
35962;DHT22;22044;48.298;10.008;2023-10-19T03:43:15;7.20;99.90
35962;DHT22;22044;48.298;10.008;2023-10-19T03:46:03;7.20;99.90
35962;DHT22;22044;48.298;10.008;2023-10-19T03:48:54;7.20;99.90
35962;DHT22;22044;48.298;10.008;2023-10-19T03:51:43;7.20;99.90
35962;DHT22;22044;48.298;10.008;2023-10-19T03:54:43;7.40;99.90
35962;DHT22;22044;48.298;10.008;2023-10-19T03:57:29;7.40;99.90
35962;DHT22;22044;48.298;10.008;2023-10-19T04:00:16;7.40;99.90
35962;DHT22;22044;48.298;10.008;2023-10-19T04:03:03;7.50;99.90
35962;DHT22;22044;48.298;10.008;2023-10-19T04:05:49;7.40;99.90
35962;DHT22;22044;48.298;10.008;2023-10-19T04:08:35;7.30;99.90
35962;DHT22;22044;48.298;10.008;2023-10-19T04:11:23;7.30;99.90
35962;DHT22;22044;48.298;10.008;2023-10-19T04:14:17;7.40;99.90
35962;DHT22;22044;48.298;10.008;2023-10-19T04:17:05;7.30;99.90
35962;DHT22;22044;48.298;10.008;2023-10-19T04:19:51;7.30;99.90
35962;DHT22;22044;48.298;10.008;2023-10-19T04:22:37;7.30;99.90
35962;DHT22;22044;48.298;10.008;2023-10-19T04:25:23;7.30;99.90
35962;DHT22;22044;48.298;10.008;2023-10-19T04:28:12;7.20;99.90
35962;DHT22;22044;48.298;10.008;2023-10-19T04:30:58;7.30;99.90
35962;DHT22;22044;48.298;10.008;2023-10-19T04:33:46;7.40;99.90
35962;DHT22;22044;48.298;10.008;2023-10-19T04:36:34;7.30;99.90
35962;DHT22;22044;48.298;10.008;2023-10-19T04:39:19;7.20;99.90
35962;DHT22;22044;48.298;10.008;2023-10-19T04:42:05;7.20;99.90
35962;DHT22;22044;48.298;10.008;2023-10-19T04:44:52;7.20;99.90
35962;DHT22;22044;48.298;10.008;2023-10-19T04:47:38;7.30;99.90
35962;DHT22;22044;48.298;10.008;2023-10-19T04:50:23;7.30;99.90
35962;DHT22;22044;48.298;10.008;2023-10-19T04:53:09;7.30;99.90
35962;DHT22;22044;48.298;10.008;2023-10-19T04:55:54;7.40;99.90
35962;DHT22;22044;48.298;10.008;2023-10-19T04:58:40;7.40;99.90
35962;DHT22;22044;48.298;10.008;2023-10-19T05:01:27;7.30;99.90
35962;DHT22;22044;48.298;10.008;2023-10-19T05:04:13;7.30;99.90
35962;DHT22;22044;48.298;10.008;2023-10-19T05:07:01;7.20;99.90
35962;DHT22;22044;48.298;10.008;2023-10-19T05:09:47;7.20;99.90
35962;DHT22;22044;48.298;10.008;2023-10-19T05:12:33;7.10;99.90
35962;DHT22;22044;48.298;10.008;2023-10-19T05:15:18;7.20;99.90
35962;DHT22;22044;48.298;10.008;2023-10-19T05:18:05;7.20;99.90
35962;DHT22;22044;48.298;10.008;2023-10-19T05:20:52;7.20;99.90
35962;DHT22;22044;48.298;10.008;2023-10-19T05:23:40;7.20;99.90
35962;DHT22;22044;48.298;10.008;2023-10-19T05:26:26;7.20;99.90
35962;DHT22;22044;48.298;10.008;2023-10-19T05:29:12;7.30;99.90
35962;DHT22;22044;48.298;10.008;2023-10-19T05:31:57;7.30;99.90
35962;DHT22;22044;48.298;10.008;2023-10-19T05:34:44;7.30;99.90
35962;DHT22;22044;48.298;10.008;2023-10-19T05:37:30;7.30;99.90
35962;DHT22;22044;48.298;10.008;2023-10-19T05:40:16;7.30;99.90
35962;DHT22;22044;48.298;10.008;2023-10-19T05:43:03;7.40;99.90
35962;DHT22;22044;48.298;10.008;2023-10-19T05:45:49;7.50;99.90
35962;DHT22;22044;48.298;10.008;2023-10-19T05:48:35;7.50;99.90
35962;DHT22;22044;48.298;10.008;2023-10-19T05:51:22;7.60;99.90
35962;DHT22;22044;48.298;10.008;2023-10-19T05:54:08;7.70;99.90
35962;DHT22;22044;48.298;10.008;2023-10-19T05:56:53;7.80;99.90
35962;DHT22;22044;48.298;10.008;2023-10-19T05:59:39;7.90;99.90
35962;DHT22;22044;48.298;10.008;2023-10-19T06:02:25;7.90;99.90
35962;DHT22;22044;48.298;10.008;2023-10-19T06:05:10;8.00;99.90
35962;DHT22;22044;48.298;10.008;2023-10-19T06:07:58;8.00;99.90
35962;DHT22;22044;48.298;10.008;2023-10-19T06:10:50;8.10;99.90
35962;DHT22;22044;48.298;10.008;2023-10-19T06:13:36;8.20;99.90
35962;DHT22;22044;48.298;10.008;2023-10-19T06:16:22;8.20;99.90
35962;DHT22;22044;48.298;10.008;2023-10-19T06:19:08;8.30;99.90
35962;DHT22;22044;48.298;10.008;2023-10-19T06:21:54;8.30;99.90
35962;DHT22;22044;48.298;10.008;2023-10-19T06:24:41;8.30;99.90
35962;DHT22;22044;48.298;10.008;2023-10-19T06:27:28;8.40;99.90
35962;DHT22;22044;48.298;10.008;2023-10-19T06:30:14;8.40;99.90
35962;DHT22;22044;48.298;10.008;2023-10-19T06:33:03;8.50;99.90
35962;DHT22;22044;48.298;10.008;2023-10-19T06:35:49;8.50;99.90
35962;DHT22;22044;48.298;10.008;2023-10-19T06:38:35;8.50;99.90
35962;DHT22;22044;48.298;10.008;2023-10-19T06:41:22;8.60;99.90
35962;DHT22;22044;48.298;10.008;2023-10-19T06:44:08;8.60;99.90
35962;DHT22;22044;48.298;10.008;2023-10-19T06:46:54;8.60;99.90
35962;DHT22;22044;48.298;10.008;2023-10-19T06:49:40;8.70;99.90
35962;DHT22;22044;48.298;10.008;2023-10-19T06:52:25;8.70;99.90
35962;DHT22;22044;48.298;10.008;2023-10-19T06:55:11;8.70;99.90
35962;DHT22;22044;48.298;10.008;2023-10-19T06:57:59;8.80;99.90
35962;DHT22;22044;48.298;10.008;2023-10-19T07:00:45;8.80;99.90
35962;DHT22;22044;48.298;10.008;2023-10-19T07:03:40;8.80;99.90
35962;DHT22;22044;48.298;10.008;2023-10-19T07:06:26;8.90;99.90
35962;DHT22;22044;48.298;10.008;2023-10-19T07:09:11;9.00;99.90
35962;DHT22;22044;48.298;10.008;2023-10-19T07:11:57;9.00;99.90
35962;DHT22;22044;48.298;10.008;2023-10-19T07:14:44;9.10;99.90
35962;DHT22;22044;48.298;10.008;2023-10-19T07:17:30;9.20;99.90
35962;DHT22;22044;48.298;10.008;2023-10-19T07:20:17;9.20;99.90
35962;DHT22;22044;48.298;10.008;2023-10-19T07:23:09;9.20;99.90
35962;DHT22;22044;48.298;10.008;2023-10-19T07:26:04;9.30;99.90
35962;DHT22;22044;48.298;10.008;2023-10-19T07:28:50;9.30;99.90
35962;DHT22;22044;48.298;10.008;2023-10-19T07:31:37;9.40;99.90
35962;DHT22;22044;48.298;10.008;2023-10-19T07:34:23;9.40;99.90
35962;DHT22;22044;48.298;10.008;2023-10-19T07:37:12;9.40;99.90
35962;DHT22;22044;48.298;10.008;2023-10-19T07:39:59;9.50;99.90
35962;DHT22;22044;48.298;10.008;2023-10-19T07:42:45;9.50;99.90
35962;DHT22;22044;48.298;10.008;2023-10-19T07:45:31;9.60;99.90
35962;DHT22;22044;48.298;10.008;2023-10-19T07:48:19;9.70;99.90
35962;DHT22;22044;48.298;10.008;2023-10-19T07:51:05;9.70;99.90
35962;DHT22;22044;48.298;10.008;2023-10-19T07:53:52;9.70;99.90
35962;DHT22;22044;48.298;10.008;2023-10-19T07:56:38;9.80;99.90
35962;DHT22;22044;48.298;10.008;2023-10-19T07:59:23;9.80;99.90
35962;DHT22;22044;48.298;10.008;2023-10-19T08:02:09;9.80;99.90
35962;DHT22;22044;48.298;10.008;2023-10-19T08:04:56;9.80;99.90
35962;DHT22;22044;48.298;10.008;2023-10-19T08:07:42;9.80;99.90
35962;DHT22;22044;48.298;10.008;2023-10-19T08:10:28;9.80;99.90
35962;DHT22;22044;48.298;10.008;2023-10-19T08:13:13;9.90;99.90
35962;DHT22;22044;48.298;10.008;2023-10-19T08:15:59;9.90;99.90
35962;DHT22;22044;48.298;10.008;2023-10-19T08:18:45;9.90;99.90
35962;DHT22;22044;48.298;10.008;2023-10-19T08:21:32;9.90;99.90
35962;DHT22;22044;48.298;10.008;2023-10-19T08:24:18;10.00;99.90
35962;DHT22;22044;48.298;10.008;2023-10-19T08:27:05;10.00;99.90
35962;DHT22;22044;48.298;10.008;2023-10-19T08:29:50;10.00;99.90
35962;DHT22;22044;48.298;10.008;2023-10-19T08:32:36;10.00;99.90
35962;DHT22;22044;48.298;10.008;2023-10-19T08:35:22;10.00;99.90
35962;DHT22;22044;48.298;10.008;2023-10-19T08:38:11;10.00;99.90
35962;DHT22;22044;48.298;10.008;2023-10-19T08:40:57;10.00;99.90
35962;DHT22;22044;48.298;10.008;2023-10-19T08:43:43;10.00;99.90
35962;DHT22;22044;48.298;10.008;2023-10-19T08:46:29;10.00;99.90
35962;DHT22;22044;48.298;10.008;2023-10-19T08:49:15;10.10;99.90
35962;DHT22;22044;48.298;10.008;2023-10-19T08:52:05;10.20;99.90
35962;DHT22;22044;48.298;10.008;2023-10-19T08:54:53;10.20;99.90
35962;DHT22;22044;48.298;10.008;2023-10-19T08:57:39;10.20;99.90
35962;DHT22;22044;48.298;10.008;2023-10-19T09:00:25;10.30;99.90
35962;DHT22;22044;48.298;10.008;2023-10-19T09:03:10;10.30;99.90
35962;DHT22;22044;48.298;10.008;2023-10-19T09:06:00;10.30;99.90
35962;DHT22;22044;48.298;10.008;2023-10-19T09:08:47;10.30;99.90
35962;DHT22;22044;48.298;10.008;2023-10-19T09:11:35;10.40;99.90
35962;DHT22;22044;48.298;10.008;2023-10-19T09:14:31;10.50;99.90
35962;DHT22;22044;48.298;10.008;2023-10-19T09:17:27;10.50;99.90
35962;DHT22;22044;48.298;10.008;2023-10-19T09:20:13;10.50;99.90
35962;DHT22;22044;48.298;10.008;2023-10-19T09:23:03;10.50;99.90
35962;DHT22;22044;48.298;10.008;2023-10-19T09:25:49;10.50;99.90
35962;DHT22;22044;48.298;10.008;2023-10-19T09:28:39;10.50;99.90
35962;DHT22;22044;48.298;10.008;2023-10-19T09:31:24;10.50;99.90
35962;DHT22;22044;48.298;10.008;2023-10-19T09:34:10;10.60;99.90
35962;DHT22;22044;48.298;10.008;2023-10-19T09:36:55;10.60;99.90
35962;DHT22;22044;48.298;10.008;2023-10-19T09:39:41;10.70;99.90
35962;DHT22;22044;48.298;10.008;2023-10-19T09:42:28;10.70;99.90
35962;DHT22;22044;48.298;10.008;2023-10-19T09:45:19;10.70;99.90
35962;DHT22;22044;48.298;10.008;2023-10-19T09:48:06;10.70;99.90
35962;DHT22;22044;48.298;10.008;2023-10-19T09:50:54;10.80;99.90
35962;DHT22;22044;48.298;10.008;2023-10-19T09:53:40;10.90;99.90
35962;DHT22;22044;48.298;10.008;2023-10-19T09:56:32;11.00;99.90
35962;DHT22;22044;48.298;10.008;2023-10-19T09:59:29;11.00;99.90
35962;DHT22;22044;48.298;10.008;2023-10-19T10:02:19;11.00;99.90
35962;DHT22;22044;48.298;10.008;2023-10-19T10:05:44;11.10;99.90
35962;DHT22;22044;48.298;10.008;2023-10-19T10:08:31;11.10;99.90
35962;DHT22;22044;48.298;10.008;2023-10-19T10:11:19;11.20;99.90
35962;DHT22;22044;48.298;10.008;2023-10-19T10:14:21;11.30;99.90
35962;DHT22;22044;48.298;10.008;2023-10-19T10:17:18;11.30;99.90
35962;DHT22;22044;48.298;10.008;2023-10-19T10:20:29;11.30;99.90
35962;DHT22;22044;48.298;10.008;2023-10-19T10:23:19;11.40;99.90
35962;DHT22;22044;48.298;10.008;2023-10-19T10:26:10;11.50;99.90
35962;DHT22;22044;48.298;10.008;2023-10-19T10:29:09;11.50;99.90
35962;DHT22;22044;48.298;10.008;2023-10-19T10:31:56;11.50;99.90
35962;DHT22;22044;48.298;10.008;2023-10-19T10:34:44;11.60;99.90
35962;DHT22;22044;48.298;10.008;2023-10-19T10:37:30;11.60;99.90
35962;DHT22;22044;48.298;10.008;2023-10-19T10:40:18;11.60;99.90
35962;DHT22;22044;48.298;10.008;2023-10-19T10:43:05;11.60;99.90
35962;DHT22;22044;48.298;10.008;2023-10-19T10:45:51;11.70;99.90
35962;DHT22;22044;48.298;10.008;2023-10-19T10:48:41;11.70;99.90
35962;DHT22;22044;48.298;10.008;2023-10-19T10:51:28;11.80;99.90
35962;DHT22;22044;48.298;10.008;2023-10-19T10:54:13;11.80;99.90
35962;DHT22;22044;48.298;10.008;2023-10-19T10:56:59;11.90;99.90
35962;DHT22;22044;48.298;10.008;2023-10-19T10:59:44;12.00;99.90
35962;DHT22;22044;48.298;10.008;2023-10-19T11:02:31;12.00;99.90
35962;DHT22;22044;48.298;10.008;2023-10-19T11:05:17;12.00;99.90
35962;DHT22;22044;48.298;10.008;2023-10-19T11:08:10;12.10;99.90
35962;DHT22;22044;48.298;10.008;2023-10-19T11:11:02;12.20;99.90
35962;DHT22;22044;48.298;10.008;2023-10-19T11:13:49;12.20;99.90
35962;DHT22;22044;48.298;10.008;2023-10-19T11:16:34;12.20;99.90
35962;DHT22;22044;48.298;10.008;2023-10-19T11:19:20;12.30;99.90
35962;DHT22;22044;48.298;10.008;2023-10-19T11:22:09;12.30;99.90
35962;DHT22;22044;48.298;10.008;2023-10-19T11:25:17;12.40;99.90
35962;DHT22;22044;48.298;10.008;2023-10-19T11:28:16;12.40;99.90
35962;DHT22;22044;48.298;10.008;2023-10-19T11:31:16;12.30;99.90
35962;DHT22;22044;48.298;10.008;2023-10-19T11:34:01;12.40;99.90
35962;DHT22;22044;48.298;10.008;2023-10-19T11:36:52;12.40;99.90
35962;DHT22;22044;48.298;10.008;2023-10-19T11:39:40;12.30;99.90
35962;DHT22;22044;48.298;10.008;2023-10-19T11:42:27;12.40;99.90
35962;DHT22;22044;48.298;10.008;2023-10-19T11:45:13;12.50;99.90
35962;DHT22;22044;48.298;10.008;2023-10-19T11:48:00;12.50;99.90
35962;DHT22;22044;48.298;10.008;2023-10-19T11:50:46;12.50;99.90
35962;DHT22;22044;48.298;10.008;2023-10-19T11:53:32;12.60;99.90
35962;DHT22;22044;48.298;10.008;2023-10-19T11:56:18;12.70;99.90
35962;DHT22;22044;48.298;10.008;2023-10-19T11:59:06;12.80;99.90
35962;DHT22;22044;48.298;10.008;2023-10-19T12:01:55;12.70;99.90
35962;DHT22;22044;48.298;10.008;2023-10-19T12:04:43;12.80;99.90
35962;DHT22;22044;48.298;10.008;2023-10-19T12:07:29;12.90;99.90
35962;DHT22;22044;48.298;10.008;2023-10-19T12:10:15;13.10;99.90
35962;DHT22;22044;48.298;10.008;2023-10-19T12:13:03;13.20;99.90
35962;DHT22;22044;48.298;10.008;2023-10-19T12:15:51;13.40;99.90
35962;DHT22;22044;48.298;10.008;2023-10-19T12:18:39;13.50;99.90
35962;DHT22;22044;48.298;10.008;2023-10-19T12:21:26;13.70;99.90
35962;DHT22;22044;48.298;10.008;2023-10-19T12:24:14;13.80;99.90
35962;DHT22;22044;48.298;10.008;2023-10-19T12:27:00;13.90;99.90
35962;DHT22;22044;48.298;10.008;2023-10-19T12:29:46;14.00;99.90
35962;DHT22;22044;48.298;10.008;2023-10-19T12:32:33;14.10;99.90
35962;DHT22;22044;48.298;10.008;2023-10-19T12:35:21;14.30;99.90
35962;DHT22;22044;48.298;10.008;2023-10-19T12:38:14;14.50;99.90
35962;DHT22;22044;48.298;10.008;2023-10-19T12:41:04;14.60;99.90
35962;DHT22;22044;48.298;10.008;2023-10-19T12:43:51;14.70;99.90
35962;DHT22;22044;48.298;10.008;2023-10-19T12:46:41;14.80;99.90
35962;DHT22;22044;48.298;10.008;2023-10-19T12:49:28;14.90;99.90
35962;DHT22;22044;48.298;10.008;2023-10-19T12:52:15;15.00;99.90
35962;DHT22;22044;48.298;10.008;2023-10-19T12:55:00;14.90;99.90
35962;DHT22;22044;48.298;10.008;2023-10-19T12:57:49;14.90;99.90
35962;DHT22;22044;48.298;10.008;2023-10-19T13:00:36;14.90;99.90
35962;DHT22;22044;48.298;10.008;2023-10-19T13:03:25;15.00;99.90
35962;DHT22;22044;48.298;10.008;2023-10-19T13:06:14;15.00;99.90
35962;DHT22;22044;48.298;10.008;2023-10-19T13:09:00;15.10;99.90
35962;DHT22;22044;48.298;10.008;2023-10-19T13:11:47;15.10;99.90
35962;DHT22;22044;48.298;10.008;2023-10-19T13:14:36;15.10;99.90
35962;DHT22;22044;48.298;10.008;2023-10-19T13:17:21;15.10;99.90
35962;DHT22;22044;48.298;10.008;2023-10-19T13:20:09;15.20;99.90
35962;DHT22;22044;48.298;10.008;2023-10-19T13:23:05;15.20;99.90
35962;DHT22;22044;48.298;10.008;2023-10-19T13:25:50;15.20;99.90
35962;DHT22;22044;48.298;10.008;2023-10-19T13:28:39;15.20;99.90
35962;DHT22;22044;48.298;10.008;2023-10-19T13:31:24;15.20;99.90
35962;DHT22;22044;48.298;10.008;2023-10-19T13:34:10;15.20;99.90
35962;DHT22;22044;48.298;10.008;2023-10-19T13:36:57;15.30;99.90
35962;DHT22;22044;48.298;10.008;2023-10-19T13:39:44;15.30;99.90
35962;DHT22;22044;48.298;10.008;2023-10-19T13:42:29;15.20;99.90
35962;DHT22;22044;48.298;10.008;2023-10-19T13:45:15;15.20;99.90
35962;DHT22;22044;48.298;10.008;2023-10-19T13:48:01;15.20;99.90
35962;DHT22;22044;48.298;10.008;2023-10-19T13:50:48;15.20;99.90
35962;DHT22;22044;48.298;10.008;2023-10-19T13:53:33;15.30;99.90
35962;DHT22;22044;48.298;10.008;2023-10-19T13:56:21;15.20;99.90
35962;DHT22;22044;48.298;10.008;2023-10-19T13:59:06;15.10;99.90
35962;DHT22;22044;48.298;10.008;2023-10-19T14:01:52;15.00;99.90
35962;DHT22;22044;48.298;10.008;2023-10-19T14:04:37;15.00;99.90
35962;DHT22;22044;48.298;10.008;2023-10-19T14:07:23;15.10;99.90
35962;DHT22;22044;48.298;10.008;2023-10-19T14:10:09;15.10;99.90
35962;DHT22;22044;48.298;10.008;2023-10-19T14:12:58;15.10;99.90
35962;DHT22;22044;48.298;10.008;2023-10-19T14:15:44;15.10;99.90
35962;DHT22;22044;48.298;10.008;2023-10-19T14:18:29;15.20;99.90
35962;DHT22;22044;48.298;10.008;2023-10-19T14:21:16;15.10;99.90
35962;DHT22;22044;48.298;10.008;2023-10-19T14:24:03;15.10;99.90
35962;DHT22;22044;48.298;10.008;2023-10-19T14:26:52;15.10;99.90
35962;DHT22;22044;48.298;10.008;2023-10-19T14:29:39;15.10;99.90
35962;DHT22;22044;48.298;10.008;2023-10-19T14:32:25;15.00;99.90
35962;DHT22;22044;48.298;10.008;2023-10-19T14:35:12;15.00;99.90
35962;DHT22;22044;48.298;10.008;2023-10-19T14:37:59;14.90;99.90
35962;DHT22;22044;48.298;10.008;2023-10-19T14:40:45;14.90;99.90
35962;DHT22;22044;48.298;10.008;2023-10-19T14:43:32;14.90;99.90
35962;DHT22;22044;48.298;10.008;2023-10-19T14:46:19;14.90;99.90
35962;DHT22;22044;48.298;10.008;2023-10-19T14:49:05;14.90;99.90
35962;DHT22;22044;48.298;10.008;2023-10-19T14:51:51;14.90;99.90
35962;DHT22;22044;48.298;10.008;2023-10-19T14:54:36;14.80;99.90
35962;DHT22;22044;48.298;10.008;2023-10-19T14:57:22;14.80;99.90
35962;DHT22;22044;48.298;10.008;2023-10-19T15:00:10;14.80;99.90
35962;DHT22;22044;48.298;10.008;2023-10-19T15:03:03;14.80;99.90
35962;DHT22;22044;48.298;10.008;2023-10-19T15:05:51;14.70;99.90
35962;DHT22;22044;48.298;10.008;2023-10-19T15:08:37;14.70;99.90
35962;DHT22;22044;48.298;10.008;2023-10-19T15:11:23;14.70;99.90
35962;DHT22;22044;48.298;10.008;2023-10-19T15:14:09;14.80;99.90
35962;DHT22;22044;48.298;10.008;2023-10-19T15:16:56;14.80;99.90
35962;DHT22;22044;48.298;10.008;2023-10-19T15:19:43;14.80;99.90
35962;DHT22;22044;48.298;10.008;2023-10-19T15:22:29;14.80;99.90
35962;DHT22;22044;48.298;10.008;2023-10-19T15:25:15;14.80;99.90
35962;DHT22;22044;48.298;10.008;2023-10-19T15:28:04;14.80;99.90
35962;DHT22;22044;48.298;10.008;2023-10-19T15:30:50;14.70;99.90
35962;DHT22;22044;48.298;10.008;2023-10-19T15:33:36;14.70;99.90
35962;DHT22;22044;48.298;10.008;2023-10-19T15:36:23;14.60;99.90
35962;DHT22;22044;48.298;10.008;2023-10-19T15:39:09;14.60;99.90
35962;DHT22;22044;48.298;10.008;2023-10-19T15:41:55;14.50;99.90
35962;DHT22;22044;48.298;10.008;2023-10-19T15:44:40;14.50;99.90
35962;DHT22;22044;48.298;10.008;2023-10-19T15:47:26;14.40;99.90
35962;DHT22;22044;48.298;10.008;2023-10-19T15:50:12;14.30;99.90
35962;DHT22;22044;48.298;10.008;2023-10-19T15:53:00;14.30;99.90
35962;DHT22;22044;48.298;10.008;2023-10-19T15:55:45;14.30;99.90
35962;DHT22;22044;48.298;10.008;2023-10-19T15:58:31;14.20;99.90
35962;DHT22;22044;48.298;10.008;2023-10-19T16:01:17;14.20;99.90
35962;DHT22;22044;48.298;10.008;2023-10-19T16:04:03;14.20;99.90
35962;DHT22;22044;48.298;10.008;2023-10-19T16:06:48;14.20;99.90
35962;DHT22;22044;48.298;10.008;2023-10-19T16:09:35;14.20;99.90
35962;DHT22;22044;48.298;10.008;2023-10-19T16:12:21;14.20;99.90
35962;DHT22;22044;48.298;10.008;2023-10-19T16:15:08;14.20;99.90
35962;DHT22;22044;48.298;10.008;2023-10-19T16:17:54;14.20;99.90
35962;DHT22;22044;48.298;10.008;2023-10-19T16:20:40;14.10;99.90
35962;DHT22;22044;48.298;10.008;2023-10-19T16:23:26;14.10;99.90
35962;DHT22;22044;48.298;10.008;2023-10-19T16:26:13;14.10;99.90
35962;DHT22;22044;48.298;10.008;2023-10-19T16:29:00;14.00;99.90
35962;DHT22;22044;48.298;10.008;2023-10-19T16:31:46;14.00;99.90
35962;DHT22;22044;48.298;10.008;2023-10-19T16:34:32;14.00;99.90
35962;DHT22;22044;48.298;10.008;2023-10-19T16:37:18;13.90;99.90
35962;DHT22;22044;48.298;10.008;2023-10-19T16:40:04;13.90;99.90
35962;DHT22;22044;48.298;10.008;2023-10-19T16:42:51;13.80;99.90
35962;DHT22;22044;48.298;10.008;2023-10-19T16:45:37;13.80;99.90
35962;DHT22;22044;48.298;10.008;2023-10-19T16:48:22;13.80;99.90
35962;DHT22;22044;48.298;10.008;2023-10-19T16:51:08;13.80;99.90
35962;DHT22;22044;48.298;10.008;2023-10-19T16:53:54;13.70;99.90
35962;DHT22;22044;48.298;10.008;2023-10-19T16:56:40;13.70;99.90
35962;DHT22;22044;48.298;10.008;2023-10-19T16:59:31;13.60;99.90
35962;DHT22;22044;48.298;10.008;2023-10-19T17:02:17;13.50;99.90
35962;DHT22;22044;48.298;10.008;2023-10-19T17:05:03;13.60;99.90
35962;DHT22;22044;48.298;10.008;2023-10-19T17:07:48;13.60;99.90
35962;DHT22;22044;48.298;10.008;2023-10-19T17:10:34;13.60;99.90
35962;DHT22;22044;48.298;10.008;2023-10-19T17:13:20;13.60;99.90
35962;DHT22;22044;48.298;10.008;2023-10-19T17:16:06;13.70;99.90
35962;DHT22;22044;48.298;10.008;2023-10-19T17:18:52;13.70;99.90
35962;DHT22;22044;48.298;10.008;2023-10-19T17:21:38;13.70;99.90
35962;DHT22;22044;48.298;10.008;2023-10-19T17:24:23;13.70;99.90
35962;DHT22;22044;48.298;10.008;2023-10-19T17:27:09;13.70;99.90
35962;DHT22;22044;48.298;10.008;2023-10-19T17:29:54;13.70;99.90